Meramec River (Missouri), Cook Station (07010350)

StateMissouriLatestLow (82 cfs)
RiverMeramec RiverRatingObservedEstimated
Updated2026-05-10 7:00 (26 minutes ago)Flood - The river is flooding. Obstacles can be treacherous or deadly. The river should be avoided at this stage for casual trips and definitely for the inexperienced. Trips should be attempted only with protective gear and equipment.Flood(none)553
Discharge82 cfs (median: 167 cfs)High - The river is high and potentially dangerous, especially for the young and / or inexperienced. Normal stream obstacles are sometimes difficult to navigate. Extended distances can be attempted, but canoe travel may not be advisable.High(none)242
Height2.56 feetGood - Conditions are ideal for a canoe or kayak. Boats typically will drag on fewer than one-quarter of riffles, if at all, and portages are unnecessary or rare. Normal float lengths can be attempted without a problem.Good(none)136
TrendSteady (falling over 24 hours)Low - River is low but can still be floated. Some riffles are okay but most come with significant dragging and might need a portage. Float lengths should be reduced to accommodate low flow, dragging, and portages.Low(none)55
USGSExternal icon USGS Site (External icon Duck Duck Go Maps)Poor - River is too low to float comfortably. Most or all riffles will drag or must be portaged and some obstacles (such as slick shelf rock) cause undue problems. Avoid the river at this stage for casual paddling trips.Poor(none)26

Trending Data

Plot Image

Trips for Meramec River (Missouri), Cook Station (07010350)

DateStartEndDistanceConditionDischargeHeightFishingDetails

A total of 0 rows are displayed.

Condition Descriptions

Fishing Conditions

Fish Species

Notes

Classic Trip List

The classic River Trips application is still available for use. It is updated with the new system using a data retrofit. It is no longer maintained. The original River Trips application is no longer updated (as of 1 Dec 2016) but can be checked for errors or for the condition of the data before it was converted to the new system.

Gauge Data Table

ObservationHeightDischargeMaximum
Discharge
Minimum
Discharge
Mean
Discharge
P05P10P20P25P50
(Median)
P75P80P90P95
2026-05-10 07:00 2.56 82 729 (2009) 25 (1977) 195 25 38 59 73 167 256 313 391 683
2026-05-10 06:00 2.56 82 729 (2009) 25 (1977) 195 25 38 59 73 167 256 313 391 683
2026-05-10 05:00 2.56 82 729 (2009) 25 (1977) 195 25 38 59 73 167 256 313 391 683
2026-05-10 04:00 2.56 82 729 (2009) 25 (1977) 195 25 38 59 73 167 256 313 391 683
2026-05-10 03:00 2.56 82 729 (2009) 25 (1977) 195 25 38 59 73 167 256 313 391 683
2026-05-10 02:00 2.57 84 729 (2009) 25 (1977) 195 25 38 59 73 167 256 313 391 683
2026-05-10 01:00 2.57 84 729 (2009) 25 (1977) 195 25 38 59 73 167 256 313 391 683
2026-05-10 00:00 2.58 85 729 (2009) 25 (1977) 195 25 38 59 73 167 256 313 391 683
2026-05-09 23:00 2.58 85 729 (2009) 25 (1977) 195 25 38 59 73 167 256 313 391 683
2026-05-09 22:00 2.58 85 3230 (2009) 24 (1981) 321 26 34 52 63 171 365 400 646 1530
2026-05-09 21:00 2.59 87 3230 (2009) 24 (1981) 321 26 34 52 63 171 365 400 646 1530
2026-05-09 20:00 2.59 87 3230 (2009) 24 (1981) 321 26 34 52 63 171 365 400 646 1530
2026-05-09 19:00 2.60 89 3230 (2009) 24 (1981) 321 26 34 52 63 171 365 400 646 1530
2026-05-09 18:00 2.60 89 3230 (2009) 24 (1981) 321 26 34 52 63 171 365 400 646 1530
2026-05-09 17:00 2.60 89 3230 (2009) 24 (1981) 321 26 34 52 63 171 365 400 646 1530
2026-05-09 16:00 2.61 90 3230 (2009) 24 (1981) 321 26 34 52 63 171 365 400 646 1530
2026-05-09 15:00 2.61 90 3230 (2009) 24 (1981) 321 26 34 52 63 171 365 400 646 1530
2026-05-09 14:00 2.62 92 3230 (2009) 24 (1981) 321 26 34 52 63 171 365 400 646 1530
2026-05-09 13:00 2.62 92 3230 (2009) 24 (1981) 321 26 34 52 63 171 365 400 646 1530
2026-05-09 12:00 2.62 92 3230 (2009) 24 (1981) 321 26 34 52 63 171 365 400 646 1530
2026-05-09 11:00 2.63 93 3230 (2009) 24 (1981) 321 26 34 52 63 171 365 400 646 1530
2026-05-09 10:00 2.63 93 3230 (2009) 24 (1981) 321 26 34 52 63 171 365 400 646 1530
2026-05-09 09:00 2.63 93 3230 (2009) 24 (1981) 321 26 34 52 63 171 365 400 646 1530
2026-05-09 08:00 2.64 95 3230 (2009) 24 (1981) 321 26 34 52 63 171 365 400 646 1530
2026-05-09 07:00 2.64 95 3230 (2009) 24 (1981) 321 26 34 52 63 171 365 400 646 1530
2026-05-09 06:00 2.65 97 3230 (2009) 24 (1981) 321 26 34 52 63 171 365 400 646 1530
2026-05-09 05:00 2.66 98 3230 (2009) 24 (1981) 321 26 34 52 63 171 365 400 646 1530
2026-05-09 04:00 2.67 100 3230 (2009) 24 (1981) 321 26 34 52 63 171 365 400 646 1530
2026-05-09 03:00 2.67 100 3230 (2009) 24 (1981) 321 26 34 52 63 171 365 400 646 1530
2026-05-09 02:00 2.66 98 3230 (2009) 24 (1981) 321 26 34 52 63 171 365 400 646 1530
2026-05-09 01:00 2.65 97 3230 (2009) 24 (1981) 321 26 34 52 63 171 365 400 646 1530
2026-05-09 00:00 2.63 93 3230 (2009) 24 (1981) 321 26 34 52 63 171 365 400 646 1530
2026-05-08 23:00 2.59 87 3230 (2009) 24 (1981) 321 26 34 52 63 171 365 400 646 1530
2026-05-08 22:00 2.52 76 4020 (2009) 25 (1981) 352 26 37 53 56 117 355 439 770 2060
2026-05-08 21:00 2.48 71 4020 (2009) 25 (1981) 352 26 37 53 56 117 355 439 770 2060
2026-05-08 20:00 2.47 69 4020 (2009) 25 (1981) 352 26 37 53 56 117 355 439 770 2060
2026-05-08 19:00 2.48 71 4020 (2009) 25 (1981) 352 26 37 53 56 117 355 439 770 2060
2026-05-08 18:00 2.48 71 4020 (2009) 25 (1981) 352 26 37 53 56 117 355 439 770 2060
2026-05-08 17:00 2.48 71 4020 (2009) 25 (1981) 352 26 37 53 56 117 355 439 770 2060
2026-05-08 16:00 2.48 71 4020 (2009) 25 (1981) 352 26 37 53 56 117 355 439 770 2060
2026-05-08 15:00 2.49 72 4020 (2009) 25 (1981) 352 26 37 53 56 117 355 439 770 2060
2026-05-08 14:00 2.49 72 4020 (2009) 25 (1981) 352 26 37 53 56 117 355 439 770 2060
2026-05-08 13:00 2.49 72 4020 (2009) 25 (1981) 352 26 37 53 56 117 355 439 770 2060
2026-05-08 12:00 2.49 72 4020 (2009) 25 (1981) 352 26 37 53 56 117 355 439 770 2060
2026-05-08 11:00 2.49 72 4020 (2009) 25 (1981) 352 26 37 53 56 117 355 439 770 2060
2026-05-08 10:00 2.50 73 4020 (2009) 25 (1981) 352 26 37 53 56 117 355 439 770 2060
2026-05-08 09:00 2.50 73 4020 (2009) 25 (1981) 352 26 37 53 56 117 355 439 770 2060
2026-05-08 08:00 2.50 73 4020 (2009) 25 (1981) 352 26 37 53 56 117 355 439 770 2060
2026-05-08 07:00 2.50 73 4020 (2009) 25 (1981) 352 26 37 53 56 117 355 439 770 2060
2026-05-08 06:00 2.50 73 4020 (2009) 25 (1981) 352 26 37 53 56 117 355 439 770 2060
2026-05-08 05:00 2.51 75 4020 (2009) 25 (1981) 352 26 37 53 56 117 355 439 770 2060
2026-05-08 04:00 2.51 75 4020 (2009) 25 (1981) 352 26 37 53 56 117 355 439 770 2060
2026-05-08 03:00 2.51 75 4020 (2009) 25 (1981) 352 26 37 53 56 117 355 439 770 2060
2026-05-08 02:00 2.51 75 4020 (2009) 25 (1981) 352 26 37 53 56 117 355 439 770 2060
2026-05-08 01:00 2.51 75 4020 (2009) 25 (1981) 352 26 37 53 56 117 355 439 770 2060
2026-05-08 00:00 2.52 76 4020 (2009) 25 (1981) 352 26 37 53 56 117 355 439 770 2060
2026-05-07 23:00 2.52 76 4020 (2009) 25 (1981) 352 26 37 53 56 117 355 439 770 2060
2026-05-07 22:00 2.52 76 1990 (1973) 27 (2012) 258 28 32 54 58 114 327 401 696 1270
2026-05-07 21:00 2.52 76 1990 (1973) 27 (2012) 258 28 32 54 58 114 327 401 696 1270
2026-05-07 20:00 2.53 78 1990 (1973) 27 (2012) 258 28 32 54 58 114 327 401 696 1270
2026-05-07 19:00 2.53 78 1990 (1973) 27 (2012) 258 28 32 54 58 114 327 401 696 1270
2026-05-07 18:00 2.53 78 1990 (1973) 27 (2012) 258 28 32 54 58 114 327 401 696 1270
2026-05-07 17:00 2.53 78 1990 (1973) 27 (2012) 258 28 32 54 58 114 327 401 696 1270
2026-05-07 16:00 2.54 79 1990 (1973) 27 (2012) 258 28 32 54 58 114 327 401 696 1270
2026-05-07 15:00 2.54 79 1990 (1973) 27 (2012) 258 28 32 54 58 114 327 401 696 1270
2026-05-07 14:00 2.55 81 1990 (1973) 27 (2012) 258 28 32 54 58 114 327 401 696 1270
2026-05-07 13:00 2.55 81 1990 (1973) 27 (2012) 258 28 32 54 58 114 327 401 696 1270
2026-05-07 12:00 2.55 81 1990 (1973) 27 (2012) 258 28 32 54 58 114 327 401 696 1270
2026-05-07 11:00 2.56 82 1990 (1973) 27 (2012) 258 28 32 54 58 114 327 401 696 1270
2026-05-07 10:00 2.56 82 1990 (1973) 27 (2012) 258 28 32 54 58 114 327 401 696 1270
2026-05-07 09:00 2.56 82 1990 (1973) 27 (2012) 258 28 32 54 58 114 327 401 696 1270
2026-05-07 08:00 2.56 82 1990 (1973) 27 (2012) 258 28 32 54 58 114 327 401 696 1270
2026-05-07 07:00 2.56 82 1990 (1973) 27 (2012) 258 28 32 54 58 114 327 401 696 1270
2026-05-07 06:00 2.57 84 1990 (1973) 27 (2012) 258 28 32 54 58 114 327 401 696 1270
2026-05-07 05:00 2.57 84 1990 (1973) 27 (2012) 258 28 32 54 58 114 327 401 696 1270
2026-05-07 04:00 2.57 84 1990 (1973) 27 (2012) 258 28 32 54 58 114 327 401 696 1270
2026-05-07 03:00 2.57 84 1990 (1973) 27 (2012) 258 28 32 54 58 114 327 401 696 1270
2026-05-07 02:00 2.58 85 1990 (1973) 27 (2012) 258 28 32 54 58 114 327 401 696 1270
2026-05-07 01:00 2.58 85 1990 (1973) 27 (2012) 258 28 32 54 58 114 327 401 696 1270
2026-05-07 00:00 2.59 87 1990 (1973) 27 (2012) 258 28 32 54 58 114 327 401 696 1270
2026-05-06 23:00 2.59 87 1990 (1973) 27 (2012) 258 28 32 54 58 114 327 401 696 1270
2026-05-06 22:00 2.60 89 1630 (2022) 26 (1977) 241 27 33 56 58 132 250 328 586 1170
2026-05-06 21:00 2.60 89 1630 (2022) 26 (1977) 241 27 33 56 58 132 250 328 586 1170
2026-05-06 20:00 2.60 89 1630 (2022) 26 (1977) 241 27 33 56 58 132 250 328 586 1170
2026-05-06 19:00 2.61 90 1630 (2022) 26 (1977) 241 27 33 56 58 132 250 328 586 1170
2026-05-06 18:00 2.62 92 1630 (2022) 26 (1977) 241 27 33 56 58 132 250 328 586 1170
2026-05-06 17:00 2.62 92 1630 (2022) 26 (1977) 241 27 33 56 58 132 250 328 586 1170
2026-05-06 16:00 2.63 93 1630 (2022) 26 (1977) 241 27 33 56 58 132 250 328 586 1170
2026-05-06 15:00 2.63 93 1630 (2022) 26 (1977) 241 27 33 56 58 132 250 328 586 1170
2026-05-06 14:00 2.64 95 1630 (2022) 26 (1977) 241 27 33 56 58 132 250 328 586 1170
2026-05-06 13:00 2.64 95 1630 (2022) 26 (1977) 241 27 33 56 58 132 250 328 586 1170
2026-05-06 12:00 2.65 97 1630 (2022) 26 (1977) 241 27 33 56 58 132 250 328 586 1170
2026-05-06 11:00 2.65 97 1630 (2022) 26 (1977) 241 27 33 56 58 132 250 328 586 1170
2026-05-06 10:00 2.65 97 1630 (2022) 26 (1977) 241 27 33 56 58 132 250 328 586 1170
2026-05-06 09:00 2.66 98 1630 (2022) 26 (1977) 241 27 33 56 58 132 250 328 586 1170
2026-05-06 08:00 2.66 98 1630 (2022) 26 (1977) 241 27 33 56 58 132 250 328 586 1170
2026-05-06 07:00 2.66 98 1630 (2022) 26 (1977) 241 27 33 56 58 132 250 328 586 1170
2026-05-06 06:00 2.67 100 1630 (2022) 26 (1977) 241 27 33 56 58 132 250 328 586 1170
2026-05-06 05:00 2.67 100 1630 (2022) 26 (1977) 241 27 33 56 58 132 250 328 586 1170
2026-05-06 04:00 2.68 102 1630 (2022) 26 (1977) 241 27 33 56 58 132 250 328 586 1170
2026-05-06 03:00 2.68 102 1630 (2022) 26 (1977) 241 27 33 56 58 132 250 328 586 1170
2026-05-06 02:00 2.68 102 1630 (2022) 26 (1977) 241 27 33 56 58 132 250 328 586 1170
2026-05-06 01:00 2.67 100 1630 (2022) 26 (1977) 241 27 33 56 58 132 250 328 586 1170
2026-05-06 00:00 2.66 98 1630 (2022) 26 (1977) 241 27 33 56 58 132 250 328 586 1170
2026-05-05 23:00 2.65 97 1630 (2022) 26 (1977) 241 27 33 56 58 132 250 328 586 1170
2026-05-05 22:00 2.63 93 2990 (2017) 27 (1977) 327 28 34 59 59 154 232 374 851 2060
2026-05-05 21:00 2.61 90 2990 (2017) 27 (1977) 327 28 34 59 59 154 232 374 851 2060
2026-05-05 20:00 2.59 87 2990 (2017) 27 (1977) 327 28 34 59 59 154 232 374 851 2060
2026-05-05 19:00 2.59 87 2990 (2017) 27 (1977) 327 28 34 59 59 154 232 374 851 2060
2026-05-05 18:00 2.59 87 2990 (2017) 27 (1977) 327 28 34 59 59 154 232 374 851 2060
2026-05-05 17:00 2.58 85 2990 (2017) 27 (1977) 327 28 34 59 59 154 232 374 851 2060
2026-05-05 16:00 2.58 85 2990 (2017) 27 (1977) 327 28 34 59 59 154 232 374 851 2060
2026-05-05 15:00 2.59 87 2990 (2017) 27 (1977) 327 28 34 59 59 154 232 374 851 2060
2026-05-05 14:00 2.59 87 2990 (2017) 27 (1977) 327 28 34 59 59 154 232 374 851 2060
2026-05-05 13:00 2.59 87 2990 (2017) 27 (1977) 327 28 34 59 59 154 232 374 851 2060
2026-05-05 12:00 2.60 89 2990 (2017) 27 (1977) 327 28 34 59 59 154 232 374 851 2060
2026-05-05 11:00 2.60 89 2990 (2017) 27 (1977) 327 28 34 59 59 154 232 374 851 2060
2026-05-05 10:00 2.60 89 2990 (2017) 27 (1977) 327 28 34 59 59 154 232 374 851 2060
2026-05-05 09:00 2.60 89 2990 (2017) 27 (1977) 327 28 34 59 59 154 232 374 851 2060
2026-05-05 08:00 2.59 87 2990 (2017) 27 (1977) 327 28 34 59 59 154 232 374 851 2060
2026-05-05 07:00 2.60 89 2990 (2017) 27 (1977) 327 28 34 59 59 154 232 374 851 2060
2026-05-05 06:00 2.59 87 2990 (2017) 27 (1977) 327 28 34 59 59 154 232 374 851 2060
2026-05-05 05:00 2.58 85 2990 (2017) 27 (1977) 327 28 34 59 59 154 232 374 851 2060
2026-05-05 04:00 2.59 87 2990 (2017) 27 (1977) 327 28 34 59 59 154 232 374 851 2060
2026-05-05 03:00 2.59 87 2990 (2017) 27 (1977) 327 28 34 59 59 154 232 374 851 2060
2026-05-05 02:00 2.59 87 2990 (2017) 27 (1977) 327 28 34 59 59 154 232 374 851 2060
2026-05-05 01:00 2.59 87 2990 (2017) 27 (1977) 327 28 34 59 59 154 232 374 851 2060
2026-05-05 00:00 2.60 89 2990 (2017) 27 (1977) 327 28 34 59 59 154 232 374 851 2060
2026-05-04 23:00 2.60 89 2990 (2017) 27 (1977) 327 28 34 59 59 154 232 374 851 2060
2026-05-04 22:00 2.60 89 4740 (2017) 28 (1977) 439 29 34 60 63 174 264 298 1350 3120
2026-05-04 21:00 2.60 89 4740 (2017) 28 (1977) 439 29 34 60 63 174 264 298 1350 3120
2026-05-04 20:00 2.60 89 4740 (2017) 28 (1977) 439 29 34 60 63 174 264 298 1350 3120
2026-05-04 19:00 2.61 90 4740 (2017) 28 (1977) 439 29 34 60 63 174 264 298 1350 3120
2026-05-04 18:00 2.61 90 4740 (2017) 28 (1977) 439 29 34 60 63 174 264 298 1350 3120
2026-05-04 17:00 2.61 90 4740 (2017) 28 (1977) 439 29 34 60 63 174 264 298 1350 3120
2026-05-04 16:00 2.61 90 4740 (2017) 28 (1977) 439 29 34 60 63 174 264 298 1350 3120
2026-05-04 15:00 2.62 92 4740 (2017) 28 (1977) 439 29 34 60 63 174 264 298 1350 3120
2026-05-04 14:00 2.62 92 4740 (2017) 28 (1977) 439 29 34 60 63 174 264 298 1350 3120
2026-05-04 13:00 2.63 93 4740 (2017) 28 (1977) 439 29 34 60 63 174 264 298 1350 3120
2026-05-04 12:00 2.63 93 4740 (2017) 28 (1977) 439 29 34 60 63 174 264 298 1350 3120
2026-05-04 11:00 2.63 93 4740 (2017) 28 (1977) 439 29 34 60 63 174 264 298 1350 3120
2026-05-04 10:00 2.64 95 4740 (2017) 28 (1977) 439 29 34 60 63 174 264 298 1350 3120
2026-05-04 09:00 2.64 95 4740 (2017) 28 (1977) 439 29 34 60 63 174 264 298 1350 3120
2026-05-04 08:00 2.64 95 4740 (2017) 28 (1977) 439 29 34 60 63 174 264 298 1350 3120
2026-05-04 07:00 2.64 95 4740 (2017) 28 (1977) 439 29 34 60 63 174 264 298 1350 3120
2026-05-04 06:00 2.65 97 4740 (2017) 28 (1977) 439 29 34 60 63 174 264 298 1350 3120
2026-05-04 05:00 2.65 97 4740 (2017) 28 (1977) 439 29 34 60 63 174 264 298 1350 3120
2026-05-04 04:00 2.65 97 4740 (2017) 28 (1977) 439 29 34 60 63 174 264 298 1350 3120
2026-05-04 03:00 2.65 97 4740 (2017) 28 (1977) 439 29 34 60 63 174 264 298 1350 3120
2026-05-04 02:00 2.65 97 4740 (2017) 28 (1977) 439 29 34 60 63 174 264 298 1350 3120
2026-05-04 01:00 2.66 98 4740 (2017) 28 (1977) 439 29 34 60 63 174 264 298 1350 3120
2026-05-04 00:00 2.66 98 4740 (2017) 28 (1977) 439 29 34 60 63 174 264 298 1350 3120
2026-05-03 23:00 2.66 98 4740 (2017) 28 (1977) 439 29 34 60 63 174 264 298 1350 3120
2026-05-03 22:00 2.66 98 3240 (1979) 29 (1981) 357 29 36 61 65 203 310 388 857 1990
2026-05-03 21:00 2.66 98 3240 (1979) 29 (1981) 357 29 36 61 65 203 310 388 857 1990
2026-05-03 20:00 2.67 100 3240 (1979) 29 (1981) 357 29 36 61 65 203 310 388 857 1990
2026-05-03 19:00 2.67 100 3240 (1979) 29 (1981) 357 29 36 61 65 203 310 388 857 1990
2026-05-03 18:00 2.67 100 3240 (1979) 29 (1981) 357 29 36 61 65 203 310 388 857 1990
2026-05-03 17:00 2.68 102 3240 (1979) 29 (1981) 357 29 36 61 65 203 310 388 857 1990
2026-05-03 16:00 2.69 103 3240 (1979) 29 (1981) 357 29 36 61 65 203 310 388 857 1990
2026-05-03 15:00 2.68 102 3240 (1979) 29 (1981) 357 29 36 61 65 203 310 388 857 1990
2026-05-03 14:00 2.69 103 3240 (1979) 29 (1981) 357 29 36 61 65 203 310 388 857 1990
2026-05-03 13:00 2.70 105 3240 (1979) 29 (1981) 357 29 36 61 65 203 310 388 857 1990
2026-05-03 12:00 2.70 105 3240 (1979) 29 (1981) 357 29 36 61 65 203 310 388 857 1990
2026-05-03 11:00 2.70 105 3240 (1979) 29 (1981) 357 29 36 61 65 203 310 388 857 1990
2026-05-03 10:00 2.70 105 3240 (1979) 29 (1981) 357 29 36 61 65 203 310 388 857 1990
2026-05-03 09:00 2.71 107 3240 (1979) 29 (1981) 357 29 36 61 65 203 310 388 857 1990
2026-05-03 08:00 2.71 107 3240 (1979) 29 (1981) 357 29 36 61 65 203 310 388 857 1990
2026-05-03 07:00 2.71 107 3240 (1979) 29 (1981) 357 29 36 61 65 203 310 388 857 1990
2026-05-03 06:00 2.72 108 3240 (1979) 29 (1981) 357 29 36 61 65 203 310 388 857 1990
2026-05-03 05:00 2.72 108 3240 (1979) 29 (1981) 357 29 36 61 65 203 310 388 857 1990
2026-05-03 04:00 2.72 108 3240 (1979) 29 (1981) 357 29 36 61 65 203 310 388 857 1990
2026-05-03 03:00 2.73 110 3240 (1979) 29 (1981) 357 29 36 61 65 203 310 388 857 1990
2026-05-03 02:00 2.73 110 3240 (1979) 29 (1981) 357 29 36 61 65 203 310 388 857 1990
2026-05-03 01:00 2.73 110 3240 (1979) 29 (1981) 357 29 36 61 65 203 310 388 857 1990
2026-05-03 00:00 2.74 112 3240 (1979) 29 (1981) 357 29 36 61 65 203 310 388 857 1990
2026-05-02 23:00 2.74 112 3240 (1979) 29 (1981) 357 29 36 61 65 203 310 388 857 1990

A total of 177 rows are displayed for years 1966 through 2025.